Time;durP1;ratioP1;P1;durP2;ratioP2;P2;SDS_P1;SDS_P2;PMS_P1;PMS_P2;Temp;Humidity;BMP_temperature;BMP_pressure;BME280_temperature;BME280_humidity;BME280_pressure;Samples;Min_cycle;Max_cycle;Signal;HPM_P1;HPM_P2
2023/01/13 00:01:24;;;;;;;6.68;3.47;;;3.80;99.90;;;;;;5034465;28;20033;-71
2023/01/13 00:03:50;;;;;;;5.97;3.28;;;3.90;99.90;;;;;;5035328;28;20025;-70
2023/01/13 00:06:19;;;;;;;6.50;3.03;;;4.00;99.90;;;;;;5025172;28;20552;-70
2023/01/13 00:08:48;;;;;;;7.25;3.30;;;4.10;99.90;;;;;;5041701;28;20033;-70
2023/01/13 00:11:14;;;;;;;5.85;3.45;;;4.10;99.90;;;;;;5039646;28;20505;-70
2023/01/13 00:13:40;;;;;;;10.02;4.88;;;3.80;99.90;;;;;;5033033;28;20021;-70
2023/01/13 00:16:09;;;;;;;8.52;4.40;;;3.70;99.90;;;;;;5045461;28;20111;-71
2023/01/13 00:18:37;;;;;;;6.97;3.50;;;3.70;99.90;;;;;;5035474;28;20514;-70
2023/01/13 00:21:10;;;;;;;5.90;3.03;;;3.80;99.90;;;;;;5040883;28;20088;-71
2023/01/13 00:23:36;;;;;;;5.82;3.45;;;3.70;99.90;;;;;;5032923;28;20124;-70
2023/01/13 00:26:05;;;;;;;6.15;3.47;;;3.70;99.90;;;;;;5033068;28;20116;-71
2023/01/13 00:28:31;;;;;;;5.38;3.40;;;3.70;99.90;;;;;;5041169;28;20029;-71
2023/01/13 00:31:08;;;;;;;6.50;3.88;;;3.60;99.90;;;;;;5034071;28;20067;-70
2023/01/13 00:33:34;;;;;;;6.13;3.22;;;3.70;99.90;;;;;;5048048;28;20032;-71
2023/01/13 00:36:02;;;;;;;8.07;3.53;;;3.80;99.90;;;;;;5038637;28;20040;-70
2023/01/13 00:38:30;;;;;;;7.43;3.65;;;3.60;99.90;;;;;;5029182;28;20383;-70
2023/01/13 00:41:01;;;;;;;6.13;3.20;;;3.70;99.90;;;;;;5033759;28;20026;-70
2023/01/13 00:43:29;;;;;;;7.43;3.75;;;3.80;99.90;;;;;;5035438;28;20033;-70
2023/01/13 00:45:55;;;;;;;5.45;2.92;;;3.80;99.90;;;;;;5035841;28;20025;-71
2023/01/13 00:48:22;;;;;;;5.20;2.90;;;3.90;99.90;;;;;;5036654;28;20086;-71
2023/01/13 00:51:03;;;;;;;6.95;3.15;;;3.90;99.90;;;;;;5036260;28;20029;-70
2023/01/13 00:53:32;;;;;;;6.28;3.30;;;4.10;99.90;;;;;;5031033;28;20033;-70
2023/01/13 00:56:06;;;;;;;6.50;2.85;;;4.10;99.90;;;;;;5038075;28;20033;-70
2023/01/13 00:58:33;;;;;;;14.70;6.77;;;4.10;99.90;;;;;;5033583;28;20029;-71
2023/01/13 01:01:00;;;;;;;22.88;10.27;;;4.00;99.90;;;;;;5035766;28;20029;-71
2023/01/13 01:03:28;;;;;;;12.43;6.93;;;3.90;99.90;;;;;;5037488;28;20097;-70
2023/01/13 01:05:54;;;;;;;10.68;4.78;;;3.80;99.90;;;;;;5045982;28;20117;-70
2023/01/13 01:08:19;;;;;;;6.75;3.45;;;3.60;99.90;;;;;;5037046;28;20184;-70
2023/01/13 01:10:45;;;;;;;8.05;3.85;;;3.60;99.90;;;;;;5042757;28;20049;-70
2023/01/13 01:13:15;;;;;;;11.07;5.50;;;3.70;99.90;;;;;;5036651;28;20029;-70
2023/01/13 01:15:46;;;;;;;10.07;4.50;;;3.60;99.90;;;;;;5031453;28;20037;-70
2023/01/13 01:18:12;;;;;;;11.68;5.75;;;3.50;99.90;;;;;;5029381;28;20552;-70
2023/01/13 01:20:38;;;;;;;10.77;6.07;;;3.40;99.90;;;;;;5029688;28;20140;-70
2023/01/13 01:23:03;;;;;;;10.10;5.68;;;3.50;99.90;;;;;;5042058;28;20056;-70
2023/01/13 01:25:30;;;;;;;10.73;5.53;;;3.60;99.90;;;;;;5036344;28;20029;-71
2023/01/13 01:27:56;;;;;;;7.70;4.32;;;3.30;99.90;;;;;;5031727;28;20494;-70
2023/01/13 01:30:22;;;;;;;7.78;3.88;;;3.40;99.90;;;;;;5038128;28;20072;-70
2023/01/13 01:32:47;;;;;;;4.35;2.58;;;3.40;99.90;;;;;;5045428;28;20036;-70
2023/01/13 01:35:13;;;;;;;7.63;3.33;;;3.60;99.90;;;;;;5034518;28;20037;-70
2023/01/13 01:37:38;;;;;;;4.70;2.13;;;3.50;99.90;;;;;;5035454;28;20084;-70
2023/01/13 01:40:05;;;;;;;5.32;2.80;;;3.50;99.90;;;;;;5035423;28;20034;-70
2023/01/13 01:45:22;;;;;;;8.85;4.47;;;3.70;99.90;;;;;;5039459;28;20435;-70
2023/01/13 01:47:50;;;;;;;10.43;4.07;;;3.60;99.90;;;;;;5036225;28;20091;-70
2023/01/13 01:50:18;;;;;;;11.45;4.88;;;3.50;99.90;;;;;;5027953;28;20083;-70
2023/01/13 01:52:49;;;;;;;6.75;3.15;;;3.40;99.90;;;;;;5028987;28;20056;-70
2023/01/13 01:55:25;;;;;;;6.72;2.53;;;3.20;99.90;;;;;;5039235;28;20040;-70
2023/01/13 01:58:02;;;;;;;8.70;3.17;;;3.10;99.90;;;;;;5036568;28;20060;-70
2023/01/13 02:00:28;;;;;;;9.27;3.38;;;3.20;99.90;;;;;;5029332;28;20041;-70
2023/01/13 02:02:56;;;;;;;4.70;2.65;;;3.40;99.90;;;;;;5043100;28;20037;-71
2023/01/13 02:05:22;;;;;;;6.15;3.15;;;3.40;99.90;;;;;;5034284;28;20026;-70
2023/01/13 02:07:52;;;;;;;5.30;2.22;;;3.40;99.90;;;;;;5028062;28;20041;-70
2023/01/13 02:10:24;;;;;;;4.88;2.38;;;3.40;99.90;;;;;;5036301;28;20040;-71
2023/01/13 02:12:51;;;;;;;5.57;2.97;;;3.50;99.90;;;;;;5034565;28;20021;-71
2023/01/13 02:15:38;;;;;;;5.80;3.20;;;3.40;99.90;;;;;;5036053;28;20099;-70
2023/01/13 02:18:21;;;;;;;5.75;3.22;;;3.40;99.90;;;;;;5037790;28;20082;-71
2023/01/13 02:20:59;;;;;;;6.82;3.10;;;3.30;99.90;;;;;;5039990;28;20040;-70
2023/01/13 02:26:53;;;;;;;5.75;2.22;;;3.40;99.90;;;;;;5031965;28;20052;-71
2023/01/13 02:32:34;;;;;;;6.13;3.40;;;3.30;99.90;;;;;;5027531;28;20486;-70
2023/01/13 02:35:21;;;;;;;6.30;2.78;;;3.10;99.90;;;;;;5037512;28;20029;-70
2023/01/13 02:37:48;;;;;;;6.15;2.50;;;3.10;99.90;;;;;;5033276;28;20455;-70
2023/01/13 02:40:46;;;;;;;5.20;2.92;;;3.10;99.90;;;;;;5043533;28;20052;-70
2023/01/13 02:46:44;;;;;;;4.70;2.50;;;3.20;99.90;;;;;;5033835;28;20076;-70
2023/01/13 02:49:18;;;;;;;6.80;2.42;;;3.20;99.90;;;;;;5011502;28;20040;-70
2023/01/13 02:51:46;;;;;;;7.13;3.40;;;3.30;99.90;;;;;;5038368;28;20116;-70
2023/01/13 02:54:16;;;;;;;5.78;2.50;;;3.20;99.90;;;;;;5045036;28;20034;-71
2023/01/13 02:56:47;;;;;;;8.32;2.92;;;3.20;99.90;;;;;;5033505;28;20388;-71
2023/01/13 02:59:13;;;;;;;5.88;3.13;;;3.10;99.90;;;;;;5035115;28;20037;-71
2023/01/13 03:01:40;;;;;;;5.10;2.45;;;3.10;99.90;;;;;;5035648;28;20021;-69
2023/01/13 03:04:51;;;;;;;5.07;2.40;;;3.20;99.90;;;;;;5038447;28;20025;-69
2023/01/13 03:07:42;;;;;;;4.95;2.38;;;3.30;99.90;;;;;;5043293;28;20534;-70
2023/01/13 03:10:32;;;;;;;3.95;1.90;;;3.50;99.90;;;;;;5034556;28;20022;-69
2023/01/13 03:13:36;;;;;;;3.30;1.77;;;3.40;99.90;;;;;;5036088;28;20056;-69
2023/01/13 03:16:20;;;;;;;6.07;2.67;;;3.40;99.90;;;;;;5034936;28;20103;-69
2023/01/13 03:19:19;;;;;;;5.20;2.00;;;3.50;99.90;;;;;;5040350;28;20025;-70
2023/01/13 03:21:52;;;;;;;4.50;2.00;;;3.50;99.90;;;;;;5039855;28;20155;-69
2023/01/13 03:24:29;;;;;;;6.45;3.08;;;3.40;99.90;;;;;;5044574;28;20087;-69
2023/01/13 03:27:11;;;;;;;7.15;2.95;;;3.30;99.90;;;;;;5042196;28;20419;-70
2023/01/13 03:29:44;;;;;;;8.32;4.10;;;3.40;99.90;;;;;;5032107;28;20029;-69
2023/01/13 03:32:15;;;;;;;7.32;3.70;;;3.20;99.90;;;;;;5043018;28;20018;-69
2023/01/13 03:35:03;;;;;;;7.82;3.53;;;3.10;99.90;;;;;;5038858;28;20499;-69
2023/01/13 03:37:35;;;;;;;6.65;2.90;;;3.10;99.90;;;;;;5038995;28;20061;-69
2023/01/13 03:40:28;;;;;;;4.40;2.20;;;2.90;99.90;;;;;;5038576;28;20036;-69
2023/01/13 03:45:49;;;;;;;4.90;2.55;;;3.10;99.90;;;;;;5039739;28;20106;-69
2023/01/13 03:48:19;;;;;;;5.18;2.65;;;3.00;99.90;;;;;;5031600;28;20037;-69
2023/01/13 03:50:51;;;;;;;9.07;3.35;;;2.80;99.90;;;;;;5037810;28;20059;-70
2023/01/13 03:53:26;;;;;;;5.68;3.05;;;2.80;99.90;;;;;;5042727;28;20112;-69
2023/01/13 03:56:00;;;;;;;5.72;3.05;;;2.60;99.90;;;;;;5044536;28;20025;-69
2023/01/13 03:58:32;;;;;;;5.30;2.45;;;2.60;99.90;;;;;;5039255;28;20033;-69
2023/01/13 04:01:20;;;;;;;4.65;2.13;;;2.60;99.90;;;;;;5037279;28;20394;-71
2023/01/13 04:03:52;;;;;;;4.88;2.47;;;2.60;99.90;;;;;;5029949;28;20045;-70
2023/01/13 04:06:23;;;;;;;5.85;2.33;;;2.70;99.90;;;;;;5035793;28;20047;-71
2023/01/13 04:08:54;;;;;;;4.43;2.15;;;2.90;99.90;;;;;;5033607;28;20022;-70
2023/01/13 04:11:46;;;;;;;5.15;2.20;;;3.00;99.90;;;;;;5038267;28;20037;-70
2023/01/13 04:14:14;;;;;;;7.35;2.25;;;3.10;99.90;;;;;;5044800;28;20498;-71
2023/01/13 04:16:40;;;;;;;5.60;1.92;;;3.10;99.90;;;;;;5028385;28;20060;-71
2023/01/13 04:19:05;;;;;;;5.00;2.60;;;3.00;99.90;;;;;;5040544;28;20029;-71
2023/01/13 04:21:32;;;;;;;4.95;2.42;;;3.10;99.90;;;;;;5042924;28;20037;-70
2023/01/13 04:23:58;;;;;;;6.15;2.88;;;3.00;99.90;;;;;;5037095;28;20037;-70
2023/01/13 04:26:24;;;;;;;7.15;2.55;;;2.90;99.90;;;;;;5036586;28;20878;-70
2023/01/13 04:28:50;;;;;;;5.40;2.85;;;2.90;99.90;;;;;;5038876;28;20025;-70
2023/01/13 04:31:16;;;;;;;5.72;2.70;;;3.00;99.90;;;;;;5041056;28;20029;-71
2023/01/13 04:33:42;;;;;;;5.35;2.03;;;3.00;99.90;;;;;;5040835;28;20525;-70
2023/01/13 04:36:08;;;;;;;4.00;2.13;;;3.00;99.90;;;;;;5033518;28;20120;-70
2023/01/13 04:38:34;;;;;;;5.53;2.35;;;2.90;99.90;;;;;;5035477;28;20108;-71
2023/01/13 04:41:00;;;;;;;6.10;2.10;;;2.80;99.90;;;;;;5036619;28;20079;-70
2023/01/13 04:43:25;;;;;;;3.28;1.80;;;2.70;99.90;;;;;;5037883;28;20387;-70
2023/01/13 04:45:51;;;;;;;4.70;2.45;;;2.70;99.90;;;;;;5042977;28;20021;-70
2023/01/13 04:48:16;;;;;;;4.00;1.85;;;2.70;99.90;;;;;;5040826;28;20384;-70
2023/01/13 04:50:42;;;;;;;2.88;1.67;;;2.70;99.90;;;;;;5033613;28;20162;-70
2023/01/13 04:53:08;;;;;;;4.53;1.80;;;2.70;99.90;;;;;;5038076;28;20120;-70
2023/01/13 04:55:34;;;;;;;4.90;2.20;;;2.70;99.90;;;;;;5027546;28;20025;-70
2023/01/13 04:58:04;;;;;;;8.27;2.47;;;2.50;99.90;;;;;;5038519;28;20036;-71
2023/01/13 05:00:30;;;;;;;7.75;2.67;;;2.20;99.90;;;;;;5031958;28;20068;-70
2023/01/13 05:02:56;;;;;;;4.22;2.17;;;2.20;99.90;;;;;;5022402;28;20416;-70
2023/01/13 05:05:22;;;;;;;5.57;2.65;;;2.30;99.90;;;;;;5032938;28;20052;-71
2023/01/13 05:07:48;;;;;;;4.20;2.28;;;2.30;99.90;;;;;;5029582;28;20033;-70
2023/01/13 05:10:13;;;;;;;4.85;2.80;;;2.50;99.90;;;;;;5023102;28;20400;-71
2023/01/13 05:18:08;;;;;;;6.00;2.10;;;2.70;99.90;;;;;;5023775;28;20438;-70
2023/01/13 05:20:33;;;;;;;4.45;2.00;;;2.80;99.90;;;;;;5028392;28;20048;-70
2023/01/13 05:25:47;;;;;;;3.45;1.60;;;3.10;99.90;;;;;;5036564;28;20518;-70
2023/01/13 05:28:13;;;;;;;6.25;2.10;;;3.00;99.90;;;;;;5038821;28;20017;-70
2023/01/13 05:30:42;;;;;;;4.72;3.00;;;3.10;99.90;;;;;;5024884;28;20025;-71
2023/01/13 05:33:13;;;;;;;5.35;2.25;;;3.00;99.90;;;;;;5029264;28;20048;-70
2023/01/13 05:35:40;;;;;;;4.68;2.30;;;3.00;99.90;;;;;;5027024;28;20037;-70
2023/01/13 05:38:06;;;;;;;4.20;2.22;;;2.90;99.90;;;;;;5031604;28;20494;-70
2023/01/13 05:43:19;;;;;;;7.47;2.97;;;3.00;99.90;;;;;;5027073;28;20052;-70
2023/01/13 05:46:00;;;;;;;4.53;2.08;;;3.00;99.90;;;;;;5039316;28;20025;-71
2023/01/13 05:48:32;;;;;;;7.80;2.90;;;2.90;99.90;;;;;;5022838;28;20103;-70
2023/01/13 05:50:58;;;;;;;8.10;3.05;;;2.90;99.90;;;;;;5024461;28;20132;-70
2023/01/13 05:53:24;;;;;;;5.13;2.50;;;3.00;99.90;;;;;;5027753;28;20117;-71
2023/01/13 05:55:50;;;;;;;5.78;2.40;;;2.90;99.90;;;;;;5027292;28;20068;-71
2023/01/13 05:58:17;;;;;;;5.80;2.17;;;3.00;99.90;;;;;;5029411;28;20029;-70
2023/01/13 06:00:43;;;;;;;6.13;2.40;;;2.90;99.90;;;;;;5028126;28;20041;-71
2023/01/13 06:03:10;;;;;;;5.13;2.22;;;3.00;99.90;;;;;;5026325;28;20029;-71
2023/01/13 06:05:36;;;;;;;3.83;1.80;;;2.80;99.90;;;;;;5039906;28;20438;-71
2023/01/13 06:08:04;;;;;;;3.35;1.90;;;2.90;99.90;;;;;;5030952;28;20033;-70
2023/01/13 06:10:30;;;;;;;6.05;2.17;;;2.80;99.90;;;;;;5021125;28;20135;-70
2023/01/13 06:12:55;;;;;;;4.35;1.90;;;2.80;99.90;;;;;;5033764;28;20467;-70
2023/01/13 06:15:22;;;;;;;3.80;1.98;;;2.80;99.90;;;;;;5027255;28;20029;-70
2023/01/13 06:17:48;;;;;;;5.30;2.50;;;2.80;99.90;;;;;;5034995;28;20033;-71
2023/01/13 06:20:15;;;;;;;4.78;2.55;;;2.90;99.90;;;;;;5032527;28;20041;-70
2023/01/13 06:22:44;;;;;;;4.03;1.80;;;3.00;99.90;;;;;;5032716;28;20052;-71
2023/01/13 06:25:49;;;;;;;226.75;104.00;;;3.10;99.90;;;;;;5034385;28;20041;-72
2023/01/13 06:28:15;;;;;;;23.77;12.32;;;3.00;99.90;;;;;;5024109;28;20045;-71
2023/01/13 06:30:51;;;;;;;8.63;4.88;;;2.90;99.90;;;;;;5021340;28;20058;-70
2023/01/13 06:33:29;;;;;;;6.10;3.17;;;2.90;99.90;;;;;;5030012;28;20118;-71
2023/01/13 06:36:15;;;;;;;6.88;3.63;;;3.10;99.90;;;;;;5066584;27;2052179;-70
2023/01/13 06:38:45;;;;;;;6.25;3.40;;;3.20;99.90;;;;;;5136867;27;20038;-70
2023/01/13 06:41:10;;;;;;;8.20;3.45;;;3.10;99.90;;;;;;5142901;27;20147;-71
2023/01/13 06:43:38;;;;;;;6.60;3.58;;;3.10;99.90;;;;;;5123648;27;20059;-70
2023/01/13 06:46:04;;;;;;;15.10;7.22;;;2.90;99.90;;;;;;5138877;27;20034;-70
2023/01/13 06:48:33;;;;;;;14.85;8.02;;;2.70;99.90;;;;;;5138823;27;20030;-69
2023/01/13 06:51:02;;;;;;;16.90;8.55;;;2.50;99.90;;;;;;5134137;27;20479;-70
2023/01/13 06:53:27;;;;;;;10.52;5.75;;;2.60;99.90;;;;;;5139338;27;20023;-71
2023/01/13 06:55:53;;;;;;;12.00;5.55;;;2.60;99.90;;;;;;5138060;27;20120;-70
2023/01/13 06:58:18;;;;;;;9.35;4.45;;;2.70;99.90;;;;;;5139646;27;20062;-70
2023/01/13 07:00:48;;;;;;;10.15;4.50;;;2.50;99.90;;;;;;5138530;27;20043;-70
2023/01/13 07:03:15;;;;;;;6.63;3.70;;;2.40;99.90;;;;;;5136533;27;20046;-70
2023/01/13 07:05:43;;;;;;;6.57;3.50;;;2.50;99.90;;;;;;5138970;27;20113;-70
2023/01/13 07:08:09;;;;;;;7.35;3.55;;;2.60;99.90;;;;;;5132618;27;20034;-70
2023/01/13 07:10:35;;;;;;;7.72;3.22;;;2.70;99.90;;;;;;5137516;27;20034;-70
2023/01/13 07:15:53;;;;;;;;;;;2.80;99.90;;;;;;5138303;27;20484;-70
2023/01/13 07:18:19;;;;;;;6.25;3.53;;;2.70;99.90;;;;;;5131407;27;20537;-70
2023/01/13 07:20:51;;;;;;;8.82;4.18;;;2.70;99.90;;;;;;5135857;27;20022;-69
2023/01/13 07:23:17;;;;;;;8.95;4.53;;;2.60;99.90;;;;;;5137497;27;20469;-70
2023/01/13 07:25:42;;;;;;;6.97;3.70;;;2.50;99.90;;;;;;5137880;27;20307;-70
2023/01/13 07:28:08;;;;;;;5.40;2.72;;;2.50;99.90;;;;;;5139585;27;20043;-69
2023/01/13 07:30:34;;;;;;;10.13;2.83;;;2.40;99.90;;;;;;5137666;27;20035;-70
2023/01/13 07:32:59;;;;;;;8.45;3.15;;;2.50;99.90;;;;;;5136274;27;20027;-70
2023/01/13 07:35:25;;;;;;;8.15;3.45;;;2.80;99.90;;;;;;5138899;27;20134;-71
2023/01/13 07:37:50;;;;;;;5.95;3.08;;;3.00;99.90;;;;;;5138049;27;20062;-69
2023/01/13 07:40:16;;;;;;;5.20;2.95;;;2.90;99.90;;;;;;5141225;27;20110;-70
2023/01/13 07:45:26;;;;;;;4.63;2.28;;;2.80;99.90;;;;;;5134858;27;20208;-69
2023/01/13 07:47:52;;;;;;;4.80;2.53;;;2.90;99.90;;;;;;5125401;27;20094;-69
2023/01/13 07:50:19;;;;;;;5.40;3.00;;;2.90;99.90;;;;;;5125770;27;20037;-69
2023/01/13 07:52:45;;;;;;;5.65;3.03;;;2.90;99.90;;;;;;5125291;27;20039;-69
2023/01/13 07:55:11;;;;;;;9.32;3.97;;;2.90;99.90;;;;;;5125394;27;20043;-70
2023/01/13 07:57:36;;;;;;;11.93;5.75;;;3.00;99.90;;;;;;5127615;27;20107;-69
2023/01/13 08:00:04;;;;;;;12.90;6.45;;;2.90;99.90;;;;;;5115526;27;20027;-69
2023/01/13 08:02:29;;;;;;;12.63;6.20;;;2.90;99.90;;;;;;5125210;27;20043;-69
2023/01/13 08:04:55;;;;;;;9.57;4.75;;;2.90;99.90;;;;;;5125903;27;20026;-69
2023/01/13 08:07:20;;;;;;;6.32;3.00;;;3.00;99.90;;;;;;5125888;27;20744;-69
2023/01/13 08:09:46;;;;;;;6.13;3.22;;;3.00;99.90;;;;;;5126354;27;20023;-69
2023/01/13 08:14:56;;;;;;;4.95;2.97;;;3.00;99.90;;;;;;5126548;27;20515;-69
2023/01/13 08:17:22;;;;;;;5.88;2.45;;;3.20;99.90;;;;;;5124933;27;20041;-69
2023/01/13 08:19:47;;;;;;;6.43;2.42;;;3.40;99.90;;;;;;5126162;27;20058;-69
2023/01/13 08:22:13;;;;;;;5.70;2.72;;;3.50;99.90;;;;;;5125020;27;20039;-70
2023/01/13 08:24:38;;;;;;;7.03;2.55;;;3.60;99.90;;;;;;5118720;27;20028;-69
2023/01/13 08:27:04;;;;;;;8.95;4.88;;;3.60;99.90;;;;;;5112532;27;20023;-69
2023/01/13 08:29:30;;;;;;;13.63;7.00;;;3.50;99.90;;;;;;5122905;27;20464;-69
2023/01/13 08:31:55;;;;;;;12.05;6.38;;;3.40;99.90;;;;;;5121391;27;20096;-70
2023/01/13 08:34:21;;;;;;;14.48;6.80;;;3.40;99.90;;;;;;5116402;27;20047;-69
2023/01/13 08:36:49;;;;;;;19.58;11.55;;;3.30;99.90;;;;;;5115093;27;20020;-69
2023/01/13 08:39:14;;;;;;;14.93;8.85;;;3.40;99.90;;;;;;5127694;27;20068;-70
2023/01/13 08:41:57;;;;;;;11.30;6.05;;;3.40;99.90;;;;;;5128562;27;20577;-69
2023/01/13 08:44:28;;;;;;;8.82;4.95;;;3.50;99.90;;;;;;5128262;27;20030;-69
2023/01/13 08:46:54;;;;;;;14.00;7.38;;;3.60;99.90;;;;;;5127160;27;20027;-69
2023/01/13 08:49:21;;;;;;;13.60;7.22;;;3.70;99.90;;;;;;5126448;27;20031;-69
2023/01/13 08:51:47;;;;;;;11.68;6.50;;;3.70;99.90;;;;;;5127361;27;20031;-69
2023/01/13 08:54:13;;;;;;;9.02;5.10;;;3.80;99.90;;;;;;5126970;27;20031;-69
2023/01/13 08:56:43;;;;;;;7.22;4.45;;;3.80;99.90;;;;;;5127517;27;20026;-69
2023/01/13 08:59:13;;;;;;;7.13;3.42;;;3.80;99.90;;;;;;5127008;27;20111;-69
2023/01/13 09:01:39;;;;;;;5.82;3.38;;;3.90;99.90;;;;;;5123793;27;20114;-69
2023/01/13 09:04:07;;;;;;;18.45;9.15;;;4.00;99.90;;;;;;5126027;27;20016;-69
2023/01/13 09:06:32;;;;;;;19.10;8.75;;;4.00;99.90;;;;;;5124156;27;20033;-69
2023/01/13 09:08:58;;;;;;;18.00;8.32;;;3.90;99.90;;;;;;5122583;27;20365;-70
2023/01/13 09:14:23;;;;;;;9.52;5.05;;;4.10;99.90;;;;;;5121389;27;20078;-69
2023/01/13 09:16:49;;;;;;;22.50;10.90;;;4.20;99.90;;;;;;5121715;27;20067;-69
2023/01/13 09:19:15;;;;;;;14.40;7.50;;;4.10;99.90;;;;;;5120445;27;20453;-69
2023/01/13 09:21:40;;;;;;;10.02;6.07;;;4.00;99.90;;;;;;5121092;27;20023;-70
2023/01/13 09:24:07;;;;;;;9.07;5.03;;;4.00;99.90;;;;;;5124859;27;20023;-69
2023/01/13 09:26:32;;;;;;;10.30;4.78;;;4.10;99.90;;;;;;5119284;27;20275;-69
2023/01/13 09:28:58;;;;;;;12.90;7.40;;;4.30;99.90;;;;;;5124437;27;20598;-69
2023/01/13 09:31:24;;;;;;;17.75;9.68;;;4.30;99.90;;;;;;5122634;27;20492;-69
2023/01/13 09:36:34;;;;;;;12.13;5.28;;;4.20;99.90;;;;;;5122376;27;20063;-69
2023/01/13 09:39:00;;;;;;;11.88;5.47;;;4.30;99.90;;;;;;5123547;27;20035;-70
2023/01/13 09:44:19;;;;;;;11.63;5.65;;;4.40;99.90;;;;;;5124603;27;20038;-69
2023/01/13 09:46:51;;;;;;;10.05;5.03;;;4.40;99.90;;;;;;5122751;27;20054;-69
2023/01/13 09:49:21;;;;;;;14.20;7.93;;;4.60;99.90;;;;;;5121394;27;20030;-69
2023/01/13 09:52:12;;;;;;;15.02;8.18;;;4.60;99.90;;;;;;5120741;27;20872;-70
2023/01/13 09:54:59;;;;;;;15.70;7.43;;;4.30;99.90;;;;;;5118660;27;20125;-69
2023/01/13 09:57:28;;;;;;;13.55;6.70;;;4.20;99.90;;;;;;5121904;27;20087;-69
2023/01/13 09:59:56;;;;;;;15.93;9.27;;;4.40;99.90;;;;;;5118068;27;20458;-69
2023/01/13 10:02:28;;;;;;;18.35;8.68;;;4.30;99.90;;;;;;5120394;27;20029;-69
2023/01/13 10:05:26;;;;;;;18.58;8.82;;;4.40;99.90;;;;;;5115095;27;20027;-70
2023/01/13 10:07:58;;;;;;;16.67;8.93;;;4.20;99.90;;;;;;5112096;27;20041;-70
2023/01/13 10:10:47;;;;;;;14.65;9.32;;;4.10;99.90;;;;;;5116144;27;20087;-69
2023/01/13 10:13:27;;;;;;;16.88;10.00;;;4.10;99.90;;;;;;5119699;27;20027;-69
2023/01/13 10:16:05;;;;;;;16.02;8.85;;;4.10;99.90;;;;;;5121401;27;20080;-69
2023/01/13 10:18:57;;;;;;;17.15;8.50;;;4.20;99.90;;;;;;5121802;27;20030;-69
2023/01/13 10:21:40;;;;;;;13.68;8.25;;;4.30;99.90;;;;;;5120404;27;20019;-69
2023/01/13 10:24:32;;;;;;;16.70;9.23;;;4.60;99.90;;;;;;5121771;27;20030;-69
2023/01/13 10:27:03;;;;;;;20.80;10.18;;;4.70;99.90;;;;;;5121091;27;20061;-69
2023/01/13 10:29:31;;;;;;;25.02;12.18;;;4.70;99.90;;;;;;5121895;27;20079;-69
2023/01/13 10:31:58;;;;;;;20.10;10.30;;;4.70;99.90;;;;;;5121418;27;20426;-69
2023/01/13 10:34:26;;;;;;;15.93;8.35;;;4.60;99.90;;;;;;5124074;28;20051;-69
2023/01/13 10:37:05;;;;;;;12.52;6.95;;;4.40;99.90;;;;;;5122483;28;20030;-69
2023/01/13 10:39:40;;;;;;;14.60;8.55;;;4.30;99.90;;;;;;5119708;28;20065;-69
2023/01/13 10:42:15;;;;;;;12.35;7.47;;;4.50;99.90;;;;;;5123217;28;20138;-69
2023/01/13 10:44:47;;;;;;;16.42;8.20;;;4.60;99.90;;;;;;5123647;28;20023;-70
2023/01/13 10:47:28;;;;;;;19.63;10.20;;;4.70;99.90;;;;;;5124488;28;20035;-69
2023/01/13 10:50:16;;;;;;;15.95;7.57;;;4.70;99.90;;;;;;5123402;28;20031;-69
2023/01/13 10:53:00;;;;;;;11.82;6.88;;;4.60;99.90;;;;;;5123354;28;20027;-69
2023/01/13 10:55:37;;;;;;;12.27;6.85;;;4.60;99.90;;;;;;5124653;28;20698;-69
2023/01/13 10:58:18;;;;;;;10.13;7.50;;;4.50;99.90;;;;;;5124483;28;20377;-69
2023/01/13 11:00:45;;;;;;;18.55;6.93;;;4.40;99.90;;;;;;5122432;28;20481;-69
2023/01/13 11:03:18;;;;;;;22.23;8.27;;;4.50;99.90;;;;;;5123062;28;20044;-69
2023/01/13 11:05:56;;;;;;;13.87;7.93;;;4.70;99.90;;;;;;5123337;28;20023;-69
2023/01/13 11:08:25;;;;;;;11.80;7.13;;;4.60;99.90;;;;;;5123660;28;20020;-69
2023/01/13 11:10:55;;;;;;;13.25;6.63;;;4.60;99.90;;;;;;5124481;28;20089;-69
2023/01/13 11:14:31;;;;;;;10.55;6.93;;;4.70;99.90;;;;;;5124426;28;20102;-69
2023/01/13 11:16:27;;;;;;;16.70;8.63;;;4.60;99.90;;;;;;5127260;28;20150;-69
2023/01/13 11:19:10;;;;;;;17.88;7.57;;;4.80;99.90;;;;;;5127729;28;20023;-69
2023/01/13 11:21:51;;;;;;;10.68;7.03;;;4.90;99.90;;;;;;5128500;27;20023;-69
2023/01/13 11:24:44;;;;;;;12.38;7.38;;;5.00;99.90;;;;;;5130905;27;20034;-69
2023/01/13 11:27:20;;;;;;;17.10;9.05;;;5.00;99.90;;;;;;5131484;27;20027;-69
2023/01/13 11:30:08;;;;;;;26.55;11.80;;;5.10;99.90;;;;;;5131752;27;20027;-69
2023/01/13 11:32:58;;;;;;;29.38;16.55;;;5.20;99.90;;;;;;5131499;27;20024;-69
2023/01/13 11:35:24;;;;;;;14.95;8.50;;;5.30;99.90;;;;;;5130498;27;20049;-69
2023/01/13 11:38:31;;;;;;;14.35;9.02;;;5.20;99.90;;;;;;5120944;27;20035;-69
2023/01/13 11:41:22;;;;;;;12.48;7.75;;;5.20;99.90;;;;;;5110773;27;20043;-69
2023/01/13 11:43:52;;;;;;;13.52;7.30;;;5.10;99.90;;;;;;5116450;27;20037;-69
2023/01/13 11:46:26;;;;;;;13.30;8.75;;;5.20;99.90;;;;;;5111841;27;20054;-70
2023/01/13 11:48:55;;;;;;;14.77;7.97;;;5.30;99.90;;;;;;5110368;27;20102;-69
2023/01/13 11:52:04;;;;;;;14.48;7.65;;;5.40;99.90;;;;;;5117769;27;20027;-69
2023/01/13 11:55:14;;;;;;;12.93;6.95;;;5.40;99.90;;;;;;5085639;27;20043;-69
2023/01/13 11:57:46;;;;;;;10.85;6.15;;;5.50;99.90;;;;;;5131438;27;20119;-69
2023/01/13 12:00:26;;;;;;;13.75;7.40;;;5.50;99.90;;;;;;5121251;27;20405;-69
2023/01/13 12:03:34;;;;;;;18.55;7.18;;;5.50;99.90;;;;;;5126361;27;20027;-69
2023/01/13 12:06:42;;;;;;;11.77;6.65;;;5.70;99.90;;;;;;5129851;27;20023;-70
2023/01/13 12:09:30;;;;;;;17.77;8.82;;;5.70;99.90;;;;;;5107631;28;20036;-69
2023/01/13 12:12:18;;;;;;;11.75;6.88;;;5.40;99.90;;;;;;5109832;28;20032;-69
2023/01/13 12:14:50;;;;;;;16.63;7.45;;;5.20;99.90;;;;;;5124976;27;20046;-69
2023/01/13 12:17:28;;;;;;;16.50;7.93;;;5.20;99.90;;;;;;5125927;27;20031;-69
2023/01/13 12:19:54;;;;;;;15.63;7.28;;;5.10;99.90;;;;;;5125740;27;20033;-69
2023/01/13 12:22:28;;;;;;;13.43;7.15;;;5.20;99.90;;;;;;5127270;27;20411;-69
2023/01/13 12:25:02;;;;;;;16.05;6.85;;;5.00;99.90;;;;;;5125071;27;20031;-69
2023/01/13 12:27:50;;;;;;;15.75;7.82;;;5.00;99.90;;;;;;5124790;27;20110;-69
2023/01/13 12:30:30;;;;;;;13.50;7.50;;;4.90;99.90;;;;;;5124227;27;20075;-71
2023/01/13 12:33:08;;;;;;;11.60;6.85;;;4.90;99.90;;;;;;5123649;27;20114;-69
2023/01/13 12:35:45;;;;;;;13.00;6.35;;;4.90;99.90;;;;;;5124960;27;20039;-70
2023/01/13 12:38:15;;;;;;;12.32;7.72;;;5.00;99.90;;;;;;5122447;27;20027;-69
2023/01/13 12:40:50;;;;;;;14.95;8.25;;;5.10;99.90;;;;;;5122983;27;20074;-69
2023/01/13 12:46:25;;;;;;;15.55;12.18;;;5.50;99.90;;;;;;5120171;27;20056;-69
2023/01/13 12:48:55;;;;;;;10.45;6.95;;;5.70;99.90;;;;;;5077775;27;20642;-69
2023/01/13 12:51:25;;;;;;;11.18;7.43;;;5.80;99.90;;;;;;5122848;27;20473;-69
2023/01/13 12:53:51;;;;;;;11.68;6.95;;;5.80;99.90;;;;;;5119882;27;20391;-69
2023/01/13 12:56:39;;;;;;;15.23;7.47;;;5.70;99.90;;;;;;5119487;27;20042;-69
2023/01/13 12:59:32;;;;;;;13.13;7.35;;;5.80;99.90;;;;;;5117965;27;20175;-69
2023/01/13 13:02:10;;;;;;;14.18;7.10;;;5.80;99.90;;;;;;5119319;27;20039;-68
2023/01/13 13:04:50;;;;;;;11.60;6.57;;;5.70;99.90;;;;;;5119866;27;20038;-69
2023/01/13 13:07:42;;;;;;;30.10;17.92;;;5.80;99.90;;;;;;5119713;27;20031;-69
2023/01/13 13:10:29;;;;;;;11.68;7.13;;;6.00;99.90;;;;;;5119552;27;20517;-69
2023/01/13 13:13:18;;;;;;;12.68;7.20;;;5.90;99.90;;;;;;5112214;27;20136;-69
2023/01/13 13:15:50;;;;;;;11.93;6.40;;;6.00;99.90;;;;;;5117731;27;20135;-71
2023/01/13 13:18:16;;;;;;;13.20;6.47;;;5.90;99.90;;;;;;5115721;27;20072;-69
2023/01/13 13:20:56;;;;;;;13.85;7.28;;;5.90;99.90;;;;;;5118086;27;20031;-69
2023/01/13 13:23:32;;;;;;;13.38;7.10;;;6.00;99.90;;;;;;5116661;27;20030;-69
2023/01/13 13:26:34;;;;;;;12.88;7.05;;;6.00;99.90;;;;;;5116321;27;20027;-69
2023/01/13 13:29:22;;;;;;;12.43;6.35;;;6.00;99.90;;;;;;5112874;27;20034;-69
2023/01/13 13:32:29;;;;;;;16.02;7.75;;;6.00;99.90;;;;;;5114463;27;20667;-69
2023/01/13 13:35:06;;;;;;;10.70;6.28;;;6.10;99.90;;;;;;5019566;27;20103;-70
2023/01/13 13:46:45;;;;;;;12.73;6.38;;;6.10;99.90;;;;;;5120668;27;20038;-69
2023/01/13 13:49:16;;;;;;;14.13;6.65;;;6.20;99.90;;;;;;5118055;27;20039;-69
2023/01/13 13:51:58;;;;;;;10.80;6.20;;;6.30;99.90;;;;;;5120040;27;20024;-69
2023/01/13 13:54:25;;;;;;;12.23;7.32;;;6.30;99.90;;;;;;5117662;27;20066;-68
2023/01/13 13:56:51;;;;;;;9.63;5.15;;;6.30;99.90;;;;;;5123623;27;20079;-69
2023/01/13 13:59:21;;;;;;;81.35;38.17;;;6.20;99.90;;;;;;5120957;27;20031;-69
2023/01/13 14:01:52;;;;;;;59.00;29.05;;;6.30;99.90;;;;;;5121546;27;20023;-69
2023/01/13 14:04:21;;;;;;;23.33;12.15;;;6.40;99.90;;;;;;5120993;27;20074;-69
2023/01/13 14:06:54;;;;;;;11.77;6.72;;;6.40;99.90;;;;;;5099507;28;20519;-69
2023/01/13 14:09:21;;;;;;;12.05;5.65;;;6.50;99.90;;;;;;5116794;27;20023;-69
2023/01/13 14:12:01;;;;;;;11.82;5.13;;;6.40;99.90;;;;;;5117446;27;20031;-69
2023/01/13 14:14:27;;;;;;;13.20;5.30;;;6.40;99.90;;;;;;5117494;27;20608;-69
2023/01/13 14:16:53;;;;;;;10.50;4.82;;;6.40;99.90;;;;;;5120650;27;20037;-69